createdAt,value
2022-11-05T00:00:07.449Z,99188.38
2022-11-05T00:05:30.729Z,99198.38
2022-11-05T00:10:36.639Z,99207.91
2022-11-05T00:15:57.707Z,99210.59
2022-11-05T00:20:59.433Z,99215.31
2022-11-05T00:26:03.471Z,99212.22
2022-11-05T00:31:09.797Z,99214.31
2022-11-05T00:36:11.805Z,99215.94
2022-11-05T00:41:13.470Z,99228.72
2022-11-05T00:46:15.210Z,99233.72
2022-11-05T00:51:17.060Z,99236.19
2022-11-05T00:56:18.743Z,99252.31
2022-11-05T01:01:20.498Z,99249.09
2022-11-05T01:06:22.238Z,99255.72
2022-11-05T01:11:37.281Z,99256.00
2022-11-05T01:16:40.592Z,99256.00
2022-11-05T01:21:42.251Z,99251.16
2022-11-05T01:26:43.897Z,99253.50
2022-11-05T01:31:45.580Z,99269.91
2022-11-05T01:36:47.261Z,99281.13
2022-11-05T01:41:48.918Z,99286.84
2022-11-05T01:46:50.939Z,99309.25
2022-11-05T01:51:52.873Z,99320.34
2022-11-05T01:57:04.041Z,99326.09
2022-11-05T02:02:07.922Z,99320.06
2022-11-05T02:07:11.035Z,99322.75
2022-11-05T02:12:14.451Z,99326.28
2022-11-05T02:17:48.121Z,99319.44
2022-11-05T02:23:14.803Z,99325.31
2022-11-05T02:28:30.034Z,99335.88
2022-11-05T02:33:58.317Z,99346.38
2022-11-05T02:39:13.397Z,99354.78
2022-11-05T02:44:27.362Z,99349.88
2022-11-05T02:49:48.182Z,99347.88
2022-11-05T02:55:08.973Z,99353.94
2022-11-05T03:00:35.368Z,99356.66
2022-11-05T03:05:47.084Z,99361.47
2022-11-05T03:11:17.727Z,99376.72
2022-11-05T03:16:28.514Z,99374.88
2022-11-05T03:21:36.269Z,99383.56
2022-11-05T03:26:56.835Z,99375.88
2022-11-05T03:32:02.430Z,99384.41
2022-11-05T03:37:06.415Z,99387.59
2022-11-05T03:42:13.273Z,99390.13
2022-11-05T03:47:22.323Z,99393.63
2022-11-05T03:52:28.260Z,99403.88
2022-11-05T03:57:34.708Z,99414.75
2022-11-05T04:02:38.516Z,99423.13
2022-11-05T04:07:58.912Z,99431.72
2022-11-05T04:13:19.254Z,99438.53
2022-11-05T04:18:21.165Z,99442.69
2022-11-05T04:23:41.246Z,99450.81
2022-11-05T04:29:05.230Z,99468.53
2022-11-05T04:34:09.529Z,99466.91
2022-11-05T04:39:11.298Z,99470.84
2022-11-05T04:44:12.971Z,99478.97
2022-11-05T04:49:14.630Z,99479.63
2022-11-05T04:54:16.287Z,99480.28
2022-11-05T04:59:17.944Z,99484.16
2022-11-05T05:04:20.704Z,99483.16
2022-11-05T05:09:22.406Z,99485.34
2022-11-05T05:14:24.071Z,99495.88
2022-11-05T05:19:26.290Z,99497.25
2022-11-05T05:24:27.939Z,99502.94
2022-11-05T05:29:29.585Z,99510.66
2022-11-05T05:34:31.256Z,99523.25
2022-11-05T05:39:32.919Z,99533.78
2022-11-05T05:44:34.559Z,99534.78
2022-11-05T05:49:36.244Z,99538.00
2022-11-05T05:54:42.493Z,99542.00
2022-11-05T05:59:44.683Z,99551.56
2022-11-05T06:04:46.345Z,99558.09
2022-11-05T06:09:48.020Z,99561.97
2022-11-05T06:14:49.674Z,99553.94
2022-11-05T06:19:51.519Z,99556.09
2022-11-05T06:24:53.175Z,99576.38
2022-11-05T06:29:54.951Z,99583.06
2022-11-05T06:34:56.888Z,99588.78
2022-11-05T06:39:58.751Z,99611.22
2022-11-05T06:45:00.453Z,99613.94
2022-11-05T06:50:02.110Z,99636.22
2022-11-05T06:55:04.394Z,99646.94
2022-11-05T07:00:08.140Z,99647.47
2022-11-05T07:05:13.373Z,99661.22
2022-11-05T07:10:17.806Z,99670.09
2022-11-05T07:15:19.463Z,99668.75
2022-11-05T07:20:21.200Z,99681.84
2022-11-05T07:25:22.875Z,99691.38
2022-11-05T07:30:24.718Z,99709.53
2022-11-05T07:35:27.855Z,99710.69
2022-11-05T07:40:31.001Z,99713.88
2022-11-05T07:45:32.889Z,99726.44
2022-11-05T07:50:37.065Z,99721.91
2022-11-05T07:55:40.899Z,99724.59
2022-11-05T08:00:42.791Z,99738.88
2022-11-05T08:05:46.725Z,99738.69
2022-11-05T08:10:48.518Z,99750.06
2022-11-05T08:15:51.378Z,99749.63
2022-11-05T08:20:53.033Z,99757.50
2022-11-05T08:25:55.743Z,99755.59
2022-11-05T08:30:57.858Z,99755.47
2022-11-05T08:36:03.134Z,99764.22
2022-11-05T08:41:05.014Z,99771.16
2022-11-05T08:46:06.678Z,99769.44
2022-11-05T08:51:08.415Z,99788.47
2022-11-05T08:56:10.118Z,99790.41
2022-11-05T09:01:11.901Z,99795.13
2022-11-05T09:06:14.578Z,99791.84
2022-11-05T09:11:16.623Z,99794.44
2022-11-05T09:16:21.556Z,99797.34
2022-11-05T09:21:23.205Z,99796.06
2022-11-05T09:26:24.907Z,99804.06
2022-11-05T09:31:26.632Z,99792.06
2022-11-05T09:36:28.319Z,99797.91
2022-11-05T09:41:35.881Z,99808.53
2022-11-05T09:46:45.808Z,99812.63
2022-11-05T09:51:47.730Z,99816.84
2022-11-05T09:56:49.593Z,99822.97
2022-11-05T10:01:59.391Z,99818.66
2022-11-05T10:07:06.170Z,99822.69
2022-11-05T10:12:17.096Z,99829.78
2022-11-05T10:17:27.909Z,99831.84
2022-11-05T10:22:29.587Z,99838.00
2022-11-05T10:27:36.484Z,99845.44
2022-11-05T10:32:42.820Z,99845.81
2022-11-05T10:37:46.774Z,99854.28
2022-11-05T10:43:03.269Z,99852.75
2022-11-05T10:48:13.812Z,99856.91
2022-11-05T10:53:20.811Z,99852.81
2022-11-05T10:58:29.015Z,99848.88
2022-11-05T11:03:41.837Z,99850.44
2022-11-05T11:08:46.319Z,99846.94
2022-11-05T11:14:09.683Z,99856.00
2022-11-05T11:19:34.164Z,99857.06
2022-11-05T11:24:42.823Z,99858.22
2022-11-05T11:29:50.064Z,99860.84
2022-11-05T11:34:54.381Z,99857.28
2022-11-05T11:40:02.155Z,99861.03
2022-11-05T11:45:35.371Z,99861.91
2022-11-05T11:50:43.143Z,99868.66
2022-11-05T11:56:05.221Z,99868.13
2022-11-05T12:01:09.569Z,99866.31
2022-11-05T12:06:39.995Z,99855.88
2022-11-05T12:11:54.881Z,99869.94
2022-11-05T12:17:02.677Z,99863.44
2022-11-05T12:22:22.446Z,99855.13
2022-11-05T12:27:38.656Z,99865.03
2022-11-05T12:33:09.660Z,99856.81
2022-11-05T12:38:11.497Z,99865.75
2022-11-05T12:43:32.112Z,99875.69
2022-11-05T12:49:04.694Z,99882.50
2022-11-05T12:54:23.511Z,99877.81
2022-11-05T12:59:36.756Z,99875.78
2022-11-05T13:05:01.486Z,99869.53
2022-11-05T13:10:20.562Z,99874.19
2022-11-05T13:15:29.585Z,99876.31
2022-11-05T13:20:39.896Z,99875.50
2022-11-05T13:25:51.697Z,99881.00
2022-11-05T13:30:57.914Z,99886.38
2022-11-05T13:36:22.727Z,99898.19
2022-11-05T13:41:34.327Z,99904.34
2022-11-05T13:47:03.029Z,99906.31
2022-11-05T13:52:38.457Z,99913.53
2022-11-05T13:58:36.813Z,99916.69
2022-11-05T14:03:45.688Z,99932.66
2022-11-05T14:08:47.935Z,99930.94
2022-11-05T14:13:55.110Z,99928.00
2022-11-05T14:19:18.354Z,99918.59
2022-11-05T14:24:22.831Z,99925.19
2022-11-05T14:29:24.925Z,99923.09
2022-11-05T14:34:45.750Z,99924.44
2022-11-05T14:39:47.959Z,99922.59
2022-11-05T14:45:34.218Z,99929.56
2022-11-05T14:50:39.945Z,99938.72
2022-11-05T14:55:43.502Z,99939.88
2022-11-05T15:00:47.538Z,99944.34
2022-11-05T15:05:51.855Z,99955.50
2022-11-05T15:10:56.824Z,99954.44
2022-11-05T15:15:59.542Z,99959.09
2022-11-05T15:21:03.418Z,99958.72
2022-11-05T15:26:22.200Z,99967.41
2022-11-05T15:31:26.930Z,99975.59
2022-11-05T15:36:31.929Z,99975.78
2022-11-05T15:41:34.645Z,99983.03
2022-11-05T15:46:36.489Z,99980.44
2022-11-05T15:51:38.200Z,99984.63
2022-11-05T15:56:52.891Z,99982.38
2022-11-05T16:02:21.071Z,99985.13
2022-11-05T16:07:23.562Z,99991.25
2022-11-05T16:12:32.449Z,100000.72
2022-11-05T16:17:39.949Z,100005.06
2022-11-05T16:22:46.808Z,100009.56
2022-11-05T16:27:48.590Z,100016.25
2022-11-05T16:32:50.637Z,100025.44
2022-11-05T16:37:52.813Z,100022.09
2022-11-05T16:42:55.217Z,100029.31
2022-11-05T16:47:58.099Z,100033.00
2022-11-05T16:52:59.786Z,100033.84
2022-11-05T16:58:01.845Z,100037.41
2022-11-05T17:03:04.226Z,100035.03
2022-11-05T17:08:05.975Z,100036.88
2022-11-05T17:13:19.646Z,100044.28
2022-11-05T17:18:21.801Z,100045.72
2022-11-05T17:23:26.802Z,100052.97
2022-11-05T17:28:29.175Z,100057.34
2022-11-05T17:33:31.333Z,100056.91
2022-11-05T17:38:33.007Z,100063.88
2022-11-05T17:43:34.671Z,100068.13
2022-11-05T17:48:38.214Z,100079.19
2022-11-05T17:53:39.867Z,100072.31
2022-11-05T17:58:41.576Z,100084.81
2022-11-05T18:03:43.227Z,100086.22
2022-11-05T18:08:44.930Z,100090.88
2022-11-05T18:13:46.870Z,100091.00
2022-11-05T18:18:49.376Z,100100.59
2022-11-05T18:23:51.070Z,100100.97
2022-11-05T18:28:52.730Z,100106.16
2022-11-05T18:33:59.416Z,100111.84
2022-11-05T18:39:03.594Z,100112.56
2022-11-05T18:44:05.577Z,100115.03
2022-11-05T18:49:07.355Z,100119.28
2022-11-05T18:54:09.095Z,100126.81
2022-11-05T19:04:46.781Z,100127.59
2022-11-05T19:09:56.914Z,100127.28
2022-11-05T19:15:02.375Z,100117.63
2022-11-05T19:20:05.507Z,100118.34
2022-11-05T19:25:07.830Z,100122.25
2022-11-05T19:30:10.142Z,100126.56
2022-11-05T19:35:11.881Z,100127.50
2022-11-05T19:40:13.663Z,100130.88
2022-11-05T19:45:44.091Z,100130.41
2022-11-05T19:50:42.878Z,100132.91
2022-11-05T19:55:45.099Z,100141.19
2022-11-05T20:00:46.852Z,100140.72
2022-11-05T20:05:48.574Z,100144.22
2022-11-05T20:10:54.633Z,100149.22
2022-11-05T20:15:56.703Z,100153.59
2022-11-05T20:21:04.031Z,100153.56
2022-11-05T20:26:06.984Z,100158.00
2022-11-05T20:31:11.226Z,100168.69
2022-11-05T20:36:19.815Z,100171.34
2022-11-05T20:41:21.981Z,100177.28
2022-11-05T20:46:24.018Z,100174.88
2022-11-05T20:51:25.678Z,100178.84
2022-11-05T20:56:30.363Z,100180.91
2022-11-05T21:01:33.721Z,100170.16
2022-11-05T21:06:35.934Z,100171.97
2022-11-05T21:11:56.142Z,100164.94
2022-11-05T21:16:57.854Z,100164.94
2022-11-05T21:21:59.810Z,100165.44
2022-11-05T21:27:01.827Z,100165.91
2022-11-05T21:32:03.910Z,100171.59
2022-11-05T21:37:05.924Z,100173.16
2022-11-05T21:42:07.666Z,100178.81
2022-11-05T21:47:09.658Z,100175.03
2022-11-05T21:52:30.665Z,100186.03
2022-11-05T21:57:52.429Z,100178.06
2022-11-05T22:02:54.289Z,100177.38
2022-11-05T22:07:56.057Z,100179.19
2022-11-05T22:12:57.882Z,100172.56
2022-11-05T22:17:59.636Z,100168.44
2022-11-05T22:23:01.303Z,100166.47
2022-11-05T22:28:03.011Z,100165.13
2022-11-05T22:33:04.712Z,100161.00
2022-11-05T22:38:06.376Z,100166.88
2022-11-05T22:43:08.041Z,100164.88
2022-11-05T22:48:09.868Z,100160.41
2022-11-05T22:53:11.821Z,100168.81
2022-11-05T22:58:13.883Z,100157.84
2022-11-05T23:03:15.856Z,100151.00
2022-11-05T23:08:35.994Z,100155.53
2022-11-05T23:13:37.662Z,100159.47
2022-11-05T23:18:58.055Z,100165.94
2022-11-05T23:24:05.585Z,100161.94
2022-11-05T23:29:07.247Z,100157.69
2022-11-05T23:34:08.898Z,100165.94
2022-11-05T23:39:10.541Z,100163.63
2022-11-05T23:44:30.648Z,100166.16
2022-11-05T23:49:32.412Z,100166.53
2022-11-05T23:54:34.134Z,100169.34
2022-11-05T23:59:35.782Z,100169.06
